Time;durP1;ratioP1;P1;durP2;ratioP2;P2;SDS_P1;SDS_P2;PMS_P1;PMS_P2;Temp;Humidity;BMP_temperature;BMP_pressure;BME280_temperature;BME280_humidity;BME280_pressure;Samples;Min_cycle;Max_cycle;Signal;HPM_P1;HPM_P2
2021/11/13 00:02:33;;;;;;;18.57;12.07;;;;;;;6.51;92.16;95578.63;5013800;28;20305;-81
2021/11/13 00:05:02;;;;;;;18.97;11.87;;;;;;;6.44;92.62;95581.00;5013198;28;20199;-81
2021/11/13 00:07:28;;;;;;;14.10;12.10;;;;;;;6.47;92.36;95578.13;5013012;28;20257;-81
2021/11/13 00:10:06;;;;;;;16.57;11.53;;;;;;;6.52;92.14;95572.56;5013043;28;20231;-81
2021/11/13 00:12:36;;;;;;;13.90;12.33;;;;;;;6.49;92.41;95576.22;5017328;28;20206;-81
2021/11/13 00:15:18;;;;;;;16.27;12.60;;;;;;;6.46;92.57;95579.09;5016902;28;20214;-81
2021/11/13 00:18:00;;;;;;;15.50;11.63;;;;;;;6.40;92.74;95582.25;5016519;28;20261;-81
2021/11/13 00:20:36;;;;;;;13.83;11.10;;;;;;;6.36;92.64;95578.38;5004541;28;20226;-81
2021/11/13 00:23:19;;;;;;;;;;;;;;;;;;;;;
2021/11/13 00:25:52;;;;;;;14.33;12.10;;;;;;;6.45;91.53;95584.34;5015068;28;20226;-81
2021/11/13 00:28:21;;;;;;;18.40;12.10;;;;;;;6.40;92.67;95582.25;5016763;28;20726;-81
2021/11/13 00:33:36;;;;;;;17.47;11.70;;;;;;;6.38;92.92;95579.03;5015997;28;20209;-81
2021/11/13 00:36:15;;;;;;;12.37;11.07;;;;;;;6.44;92.25;95578.44;5016902;28;20210;-81
2021/11/13 00:38:49;;;;;;;12.30;10.83;;;;;;;6.52;91.89;95575.13;5016591;28;20358;-81
2021/11/13 00:41:20;;;;;;;15.47;11.50;;;;;;;6.53;91.66;95580.09;5016857;28;20250;-81
2021/11/13 00:46:42;;;;;;;15.87;11.67;;;;;;;6.45;92.23;95572.38;5015253;28;20596;-81
2021/11/13 00:49:11;;;;;;;14.20;11.30;;;;;;;6.45;92.61;95571.56;5015717;28;20261;-81
2021/11/13 00:51:46;;;;;;;17.97;11.63;;;;;;;6.47;92.74;95569.66;5008613;28;20275;-81
2021/11/13 00:54:18;;;;;;;13.07;10.90;;;;;;;6.55;91.89;95570.50;5026743;28;20231;-81
2021/11/13 00:56:47;;;;;;;13.47;11.03;;;;;;;6.58;92.06;95571.94;5015707;28;20230;-81
2021/11/13 00:59:13;;;;;;;17.90;12.00;;;;;;;6.60;92.08;95554.69;5015841;28;20730;-81
2021/11/13 01:01:42;;;;;;;13.73;11.60;;;;;;;6.54;92.20;95568.88;5016447;28;20222;-82
2021/11/13 01:04:29;;;;;;;15.03;11.83;;;;;;;6.51;92.35;95571.78;5016273;28;20202;-81
2021/11/13 01:06:56;;;;;;;12.93;10.40;;;;;;;6.52;92.31;95563.16;5016185;28;20207;-80
2021/11/13 01:09:24;;;;;;;15.23;11.80;;;;;;;6.49;92.72;95558.31;5015893;28;20249;-80
2021/11/13 01:11:59;;;;;;;13.67;10.90;;;;;;;6.47;92.72;95556.88;5016273;28;20199;-81
2021/11/13 01:14:29;;;;;;;17.77;11.63;;;;;;;6.44;93.05;95557.97;5016290;28;20206;-81
2021/11/13 01:17:06;;;;;;;16.47;11.57;;;;;;;6.45;92.94;95551.09;5016355;28;20207;-81
2021/11/13 01:19:36;;;;;;;21.57;11.60;;;;;;;6.44;92.77;95554.63;5015237;28;20265;-81
2021/11/13 01:22:09;;;;;;;18.23;13.37;;;;;;;6.40;93.56;95549.00;5016821;28;20295;-81
2021/11/13 01:24:38;;;;;;;15.73;11.87;;;;;;;6.43;93.62;95553.00;5016074;28;20558;-81
2021/11/13 01:27:06;;;;;;;16.67;11.90;;;;;;;6.42;93.62;95546.28;5015962;28;20207;-81
2021/11/13 01:29:35;;;;;;;14.97;10.97;;;;;;;6.44;92.63;95545.19;5015671;28;20231;-81
2021/11/13 01:32:02;;;;;;;11.90;10.70;;;;;;;6.42;92.02;95546.28;5015787;28;20668;-80
2021/11/13 01:34:34;;;;;;;11.37;10.17;;;;;;;6.44;92.14;95542.63;5015463;28;20206;-80
2021/11/13 01:37:11;;;;;;;12.67;10.53;;;;;;;6.48;91.83;95541.38;5015021;28;20305;-79
2021/11/13 01:39:38;;;;;;;11.90;10.47;;;;;;;6.50;91.61;95539.47;4996179;28;20234;-81
2021/11/13 01:42:11;;;;;;;13.63;10.00;;;;;;;6.46;91.00;95530.50;4996404;28;20223;-80
2021/11/13 01:44:42;;;;;;;10.67;9.57;;;;;;;6.38;90.59;95530.44;4995568;28;20204;-81
2021/11/13 01:47:11;;;;;;;11.27;9.90;;;;;;;6.37;90.47;95535.72;4995724;28;20310;-81
2021/11/13 01:49:42;;;;;;;10.10;9.10;;;;;;;6.40;90.93;95523.41;4995723;28;20735;-80
2021/11/13 01:52:15;;;;;;;10.90;9.70;;;;;;;6.43;90.45;95527.44;4995650;28;20227;-82
2021/11/13 01:54:48;;;;;;;13.40;9.57;;;;;;;6.47;90.43;95523.63;4995764;28;20199;-81
2021/11/13 01:57:21;;;;;;;10.23;9.17;;;;;;;6.50;89.84;95518.22;4995481;28;20207;-82
2021/11/13 01:59:55;;;;;;;10.03;8.80;;;;;;;6.46;89.95;95522.03;5030089;23;20233;-81
2021/11/13 02:02:21;;;;;;;10.50;9.20;;;;;;;6.46;90.22;95522.81;5034529;28;20222;-81
2021/11/13 02:04:48;;;;;;;10.87;8.93;;;;;;;6.48;89.77;95525.22;5034847;28;20370;-82
2021/11/13 02:07:14;;;;;;;11.30;10.10;;;;;;;6.47;89.57;95528.75;5034137;28;20876;-80
2021/11/13 02:09:41;;;;;;;11.50;9.50;;;;;;;6.46;89.69;95527.94;5022110;28;20219;-83
2021/11/13 02:12:08;;;;;;;12.80;9.50;;;;;;;6.42;89.80;95521.53;5014558;28;20210;-83
2021/11/13 02:14:36;;;;;;;9.30;8.40;;;;;;;6.40;90.12;95517.50;5013219;28;20644;-81
2021/11/13 02:17:03;;;;;;;10.13;8.87;;;;;;;6.38;89.93;95521.97;5014283;28;20199;-81
2021/11/13 02:19:29;;;;;;;9.47;7.90;;;;;;;6.41;89.68;95519.09;5013441;28;20226;-82
2021/11/13 02:21:58;;;;;;;9.07;8.27;;;;;;;6.43;89.71;95524.88;5014333;28;20231;-82
2021/11/13 02:24:25;;;;;;;16.80;9.27;;;;;;;6.43;89.37;95515.44;5013660;28;20203;-82
2021/11/13 02:26:51;;;;;;;9.10;8.20;;;;;;;6.43;89.49;95519.75;5013679;28;20199;-82
2021/11/13 02:29:17;;;;;;;10.37;9.27;;;;;;;6.30;90.72;95524.50;5013489;28;20223;-82
2021/11/13 02:31:46;;;;;;;9.53;8.63;;;;;;;6.31;90.38;95519.22;5014257;28;20203;-83
2021/11/13 02:34:13;;;;;;;17.30;9.00;;;;;;;6.21;90.67;95521.06;5013121;28;20264;-82
2021/11/13 02:36:40;;;;;;;9.77;8.73;;;;;;;6.25;90.62;95519.84;5013559;28;20211;-82
2021/11/13 02:39:10;;;;;;;11.07;8.40;;;;;;;6.30;90.23;95529.59;5013596;28;20223;-82
2021/11/13 02:41:38;;;;;;;9.50;8.50;;;;;;;6.28;90.62;95521.28;5013797;28;20218;-82
2021/11/13 02:44:06;;;;;;;29.90;9.57;;;;;;;6.28;90.41;95526.41;5013786;28;20210;-82
2021/11/13 02:46:33;;;;;;;9.07;8.10;;;;;;;6.26;90.91;95524.00;5013487;28;20221;-82
2021/11/13 02:49:02;;;;;;;11.67;9.03;;;;;;;6.17;91.36;95524.88;5013482;28;20226;-83
2021/11/13 02:51:30;;;;;;;11.23;8.93;;;;;;;6.23;91.30;95516.63;5013013;28;20662;-82
2021/11/13 02:53:57;;;;;;;20.20;9.67;;;;;;;6.26;91.45;95521.44;5013593;28;20293;-82
2021/11/13 02:56:25;;;;;;;10.30;9.30;;;;;;;6.25;91.28;95522.38;5014084;28;20577;-82
2021/11/13 02:58:52;;;;;;;17.23;9.60;;;;;;;6.24;91.70;95519.03;5013865;28;20230;-82
2021/11/13 03:01:21;;;;;;;11.10;9.77;;;;;;;6.34;91.67;95525.81;5013918;28;20681;-82
2021/11/13 03:03:49;;;;;;;11.70;9.40;;;;;;;6.39;91.34;95532.03;5013361;28;20595;-82
2021/11/13 03:06:16;;;;;;;9.83;8.73;;;;;;;6.46;90.29;95527.94;5013485;28;20226;-82
2021/11/13 03:08:44;;;;;;;33.37;10.73;;;;;;;6.48;89.95;95530.34;5013377;28;20222;-82
2021/11/13 03:11:15;;;;;;;34.07;11.10;;;;;;;6.30;90.77;95529.59;5012952;28;20297;-82
2021/11/13 03:13:45;;;;;;;42.57;10.60;;;;;;;6.11;92.51;95528.88;5012853;28;20730;-82
2021/11/13 03:16:13;;;;;;;10.93;9.67;;;;;;;6.17;92.23;95533.34;5013324;28;20209;-82
2021/11/13 03:18:40;;;;;;;10.07;8.83;;;;;;;6.27;91.43;95537.56;5012766;28;20223;-82
2021/11/13 03:21:08;;;;;;;10.07;9.03;;;;;;;6.31;90.54;95532.03;5012417;28;20194;-82
2021/11/13 03:23:36;;;;;;;71.97;12.07;;;;;;;6.33;90.30;95537.78;5013368;28;20242;-82
2021/11/13 03:26:07;;;;;;;11.70;10.10;;;;;;;6.27;90.75;95530.72;5013421;28;20207;-83
2021/11/13 03:28:37;;;;;;;11.30;9.73;;;;;;;6.33;90.93;95519.09;5012866;28;20223;-82
2021/11/13 03:31:06;;;;;;;100.70;13.73;;;;;;;6.11;91.34;95525.50;5012859;28;20207;-82
2021/11/13 03:33:35;;;;;;;55.37;12.37;;;;;;;6.10;92.49;95523.91;5012617;28;20206;-83
2021/11/13 03:36:02;;;;;;;18.73;10.33;;;;;;;6.14;92.34;95525.22;5012482;28;20207;-83
2021/11/13 03:38:29;;;;;;;11.67;9.90;;;;;;;6.20;91.93;95529.69;5013331;28;20206;-82
2021/11/13 03:40:55;;;;;;;10.87;9.77;;;;;;;6.27;91.25;95528.16;5012310;28;20685;-82
2021/11/13 03:43:22;;;;;;;13.47;10.47;;;;;;;6.24;90.93;95526.69;5012125;28;20237;-82
2021/11/13 03:45:50;;;;;;;21.80;11.03;;;;;;;6.12;91.65;95525.34;5014560;28;20210;-82
2021/11/13 03:48:18;;;;;;;14.03;9.20;;;;;;;6.16;90.80;95525.84;5016280;28;20214;-81
2021/11/13 03:50:45;;;;;;;9.77;8.80;;;;;;;6.22;90.57;95527.78;5016301;28;20207;-82
2021/11/13 03:53:11;;;;;;;11.47;8.87;;;;;;;6.28;90.14;95524.66;5016556;28;20227;-82
2021/11/13 03:55:38;;;;;;;8.77;7.87;;;;;;;6.31;89.29;95529.47;5016474;28;20225;-82
2021/11/13 03:58:05;;;;;;;10.33;8.80;;;;;;;6.33;88.52;95530.13;5016780;28;20815;-82
2021/11/13 04:00:32;;;;;;;9.23;8.33;;;;;;;6.33;88.47;95531.88;5016384;28;20606;-82
2021/11/13 04:02:59;;;;;;;9.03;8.13;;;;;;;6.32;88.52;95532.81;5023557;28;20228;-82
2021/11/13 04:05:27;;;;;;;9.03;8.13;;;;;;;6.32;88.02;95535.38;5036386;28;20210;-80
2021/11/13 04:07:53;;;;;;;7.87;7.07;;;;;;;6.32;87.75;95540.50;5036586;28;20206;-82
2021/11/13 04:10:20;;;;;;;7.70;7.00;;;;;;;6.26;88.15;95536.78;5036578;28;20225;-83
2021/11/13 04:12:47;;;;;;;7.37;6.67;;;;;;;6.28;88.30;95547.66;5036829;28;20194;-83
2021/11/13 04:15:15;;;;;;;7.53;6.83;;;;;;;6.30;87.84;95547.50;5036128;28;20264;-82
2021/11/13 04:17:43;;;;;;;35.57;8.47;;;;;;;6.24;87.46;95559.13;5036021;28;20228;-82
2021/11/13 04:20:11;;;;;;;14.57;8.10;;;;;;;6.13;88.79;95565.31;5035974;28;20245;-83
2021/11/13 04:22:40;;;;;;;9.10;8.20;;;;;;;6.11;88.83;95568.97;5035974;28;20262;-82
2021/11/13 04:25:07;;;;;;;8.10;7.23;;;;;;;6.14;88.60;95563.56;5036079;28;20202;-82
2021/11/13 04:27:35;;;;;;;22.67;7.97;;;;;;;6.07;88.42;95563.34;5035611;28;20257;-82
2021/11/13 04:30:01;;;;;;;34.90;8.50;;;;;;;5.98;88.62;95566.78;5016756;28;20218;-82
2021/11/13 04:32:29;;;;;;;24.70;8.67;;;;;;;5.90;90.42;95571.84;5015817;28;20204;-82
2021/11/13 04:35:14;;;;;;;43.00;8.50;;;;;;;5.87;89.91;95572.91;5015834;28;20573;-82
2021/11/13 04:37:43;;;;;;;15.43;8.00;;;;;;;5.79;90.69;95577.13;5015980;28;20639;-82
2021/11/13 04:40:10;;;;;;;56.10;9.80;;;;;;;5.78;90.60;95572.97;5015710;28;20229;-82
2021/11/13 04:42:37;;;;;;;18.83;7.83;;;;;;;5.85;90.85;95572.25;5015796;28;20634;-82
2021/11/13 04:45:04;;;;;;;29.43;8.40;;;;;;;5.92;90.07;95571.69;5015701;28;20807;-82
2021/11/13 04:47:33;;;;;;;7.90;7.10;;;;;;;5.95;90.14;95579.88;5013662;28;20213;-82
2021/11/13 04:50:00;;;;;;;7.93;7.23;;;;;;;6.01;89.55;95576.69;5026168;28;20277;-82
2021/11/13 04:52:27;;;;;;;49.80;9.17;;;;;;;6.01;88.52;95586.91;5020939;28;20229;-83
2021/11/13 04:54:55;;;;;;;30.90;8.37;;;;;;;6.02;88.69;95587.72;5035255;28;20669;-82
2021/11/13 04:57:22;;;;;;;8.50;7.60;;;;;;;6.06;88.71;95583.94;5022830;28;20666;-82
2021/11/13 04:59:48;;;;;;;11.53;7.43;;;;;;;6.04;88.12;95590.94;5014980;28;20265;-82
2021/11/13 05:02:15;;;;;;;8.03;7.23;;;;;;;6.10;88.50;95591.16;5022240;28;20221;-82
2021/11/13 05:04:41;;;;;;;25.47;8.10;;;;;;;6.03;88.03;95589.31;5033713;28;20198;-82
2021/11/13 05:07:08;;;;;;;8.13;7.33;;;;;;;6.01;88.68;95588.66;5014981;28;20199;-82
2021/11/13 05:09:34;;;;;;;8.53;7.63;;;;;;;5.97;88.64;95595.03;5014932;28;20231;-82
2021/11/13 05:12:03;;;;;;;27.53;8.37;;;;;;;5.86;89.28;95596.03;5015197;28;20207;-82
2021/11/13 05:14:29;;;;;;;12.37;8.13;;;;;;;5.83;90.13;95598.88;5014882;28;20209;-82
2021/11/13 05:16:55;;;;;;;8.40;7.47;;;;;;;5.93;89.51;95597.09;5014569;28;20211;-82
2021/11/13 05:19:22;;;;;;;8.53;7.73;;;;;;;6.00;89.10;95600.66;5013972;28;20218;-82
2021/11/13 05:21:48;;;;;;;10.77;7.77;;;;;;;6.04;88.28;95596.84;5017408;28;20631;-82
2021/11/13 05:24:15;;;;;;;12.37;8.27;;;;;;;6.02;88.19;95597.94;5034770;28;20728;-82
2021/11/13 05:26:41;;;;;;;17.80;8.90;;;;;;;5.99;87.81;95598.22;5034410;28;20202;-82
2021/11/13 05:29:09;;;;;;;12.83;8.33;;;;;;;5.81;89.18;95599.03;5035488;28;20218;-82
2021/11/13 05:31:35;;;;;;;57.17;11.07;;;;;;;5.61;90.00;95602.66;5034223;28;20202;-82
2021/11/13 05:34:02;;;;;;;37.43;11.53;;;;;;;5.50;91.37;95601.16;5034659;28;20202;-82
2021/11/13 05:36:28;;;;;;;11.30;8.73;;;;;;;5.59;91.37;95599.47;5034356;28;20567;-82
2021/11/13 05:38:55;;;;;;;12.43;8.90;;;;;;;5.71;90.92;95600.88;5034757;28;20694;-82
2021/11/13 05:41:21;;;;;;;12.97;9.43;;;;;;;5.76;89.85;95601.25;5034783;28;20559;-82
2021/11/13 05:43:48;;;;;;;9.80;8.73;;;;;;;5.84;88.94;95603.84;5034848;28;20222;-82
2021/11/13 05:46:16;;;;;;;32.47;10.10;;;;;;;5.82;88.08;95605.75;5034430;28;20206;-82
2021/11/13 05:48:43;;;;;;;10.93;8.70;;;;;;;5.83;88.64;95606.53;5024517;28;20227;-82
2021/11/13 05:51:09;;;;;;;12.60;9.50;;;;;;;5.89;88.59;95603.44;5013822;28;20662;-82
2021/11/13 05:53:36;;;;;;;65.60;12.20;;;;;;;5.86;88.36;95601.16;5013564;28;20740;-82
2021/11/13 05:56:02;;;;;;;13.70;9.67;;;;;;;5.83;88.53;95596.31;5014116;28;20203;-83
2021/11/13 05:58:29;;;;;;;13.57;9.73;;;;;;;5.79;88.40;95600.13;5014217;28;20222;-82
2021/11/13 06:00:55;;;;;;;11.60;9.10;;;;;;;5.78;89.02;95601.88;5014035;28;20210;-82
2021/11/13 06:03:23;;;;;;;12.13;9.77;;;;;;;5.77;89.27;95599.50;5014128;28;20219;-82
2021/11/13 06:05:49;;;;;;;18.13;10.03;;;;;;;5.84;88.64;95603.84;5014031;28;20203;-82
2021/11/13 06:08:16;;;;;;;20.20;9.10;;;;;;;5.85;88.39;95610.56;5013254;28;20199;-82
2021/11/13 06:10:42;;;;;;;17.80;9.50;;;;;;;5.81;88.11;95606.69;5014174;28;20203;-82
2021/11/13 06:13:09;;;;;;;9.90;8.73;;;;;;;5.89;88.39;95609.34;5014089;28;20198;-82
2021/11/13 06:15:35;;;;;;;11.33;9.73;;;;;;;5.95;87.90;95602.06;5013959;28;20646;-82
2021/11/13 06:18:02;;;;;;;10.77;9.33;;;;;;;5.96;87.64;95603.66;5013493;28;20202;-82
2021/11/13 06:20:30;;;;;;;12.97;9.80;;;;;;;6.00;87.80;95602.41;5013842;28;20234;-82
2021/11/13 06:22:57;;;;;;;18.47;9.87;;;;;;;5.98;87.59;95609.41;5023689;28;20274;-82
2021/11/13 06:25:23;;;;;;;13.27;10.13;;;;;;;5.97;87.96;95615.47;5033137;28;20661;-82
2021/11/13 06:27:50;;;;;;;10.97;9.10;;;;;;;5.95;87.69;95623.31;5032174;28;20210;-83
2021/11/13 06:30:18;;;;;;;11.70;9.67;;;;;;;5.94;88.12;95610.69;5013469;28;20229;-82
2021/11/13 06:32:46;;;;;;;11.90;9.00;;;;;;;5.87;88.09;95611.22;5013490;28;20740;-82
2021/11/13 06:35:14;;;;;;;28.77;9.80;;;;;;;5.76;88.23;95605.53;5013625;28;20213;-84
2021/11/13 06:37:42;;;;;;;11.40;9.10;;;;;;;5.73;88.10;95609.19;5013390;28;20203;-82
2021/11/13 06:40:10;;;;;;;18.13;10.37;;;;;;;5.70;88.01;95612.03;5013583;28;20227;-82
2021/11/13 06:42:37;;;;;;;11.10;9.07;;;;;;;5.69;87.97;95618.09;5013339;28;20199;-82
2021/11/13 06:45:05;;;;;;;12.63;9.80;;;;;;;5.70;88.04;95626.56;5013329;28;20223;-82
2021/11/13 06:47:31;;;;;;;12.50;9.57;;;;;;;5.77;87.43;95630.91;5013720;28;20737;-82
2021/11/13 06:49:58;;;;;;;11.17;9.23;;;;;;;5.82;87.31;95633.03;5013851;28;20250;-82
2021/11/13 06:52:24;;;;;;;10.67;9.43;;;;;;;5.81;86.67;95631.44;5012533;28;20633;-82
2021/11/13 06:54:52;;;;;;;9.77;8.77;;;;;;;5.75;88.12;95637.16;5013322;28;20194;-82
2021/11/13 06:57:19;;;;;;;11.73;9.67;;;;;;;5.83;87.94;95637.19;5013236;28;20225;-82
2021/11/13 06:59:46;;;;;;;10.73;8.80;;;;;;;5.89;88.28;95641.78;5013043;28;20234;-82
2021/11/13 07:02:13;;;;;;;11.23;8.90;;;;;;;5.95;88.37;95643.75;5020056;28;20198;-81
2021/11/13 07:04:39;;;;;;;10.57;9.23;;;;;;;5.95;88.48;95648.06;5033138;28;20271;-82
2021/11/13 07:07:06;;;;;;;13.27;9.37;;;;;;;5.93;88.86;95653.31;5032832;28;20275;-82
2021/11/13 07:09:32;;;;;;;10.57;8.67;;;;;;;5.98;88.39;95655.41;5032600;28;20217;-82
2021/11/13 07:12:00;;;;;;;9.50;8.03;;;;;;;5.99;88.37;95646.78;5032371;28;20206;-82
2021/11/13 07:14:27;;;;;;;9.07;8.10;;;;;;;5.98;88.56;95634.97;5032143;28;20202;-82
2021/11/13 07:16:53;;;;;;;10.30;7.97;;;;;;;5.99;88.44;95637.38;5032412;28;20217;-82
2021/11/13 07:19:20;;;;;;;9.93;8.53;;;;;;;6.06;88.22;95640.16;5032127;28;20222;-82
2021/11/13 07:21:47;;;;;;;8.93;7.97;;;;;;;6.09;88.00;95638.13;5032041;28;20202;-82
2021/11/13 07:24:15;;;;;;;10.73;8.27;;;;;;;6.05;88.09;95633.44;5031900;28;20233;-82
2021/11/13 07:26:41;;;;;;;10.17;8.20;;;;;;;6.04;88.32;95630.06;5032131;28;20197;-82
2021/11/13 07:29:13;;;;;;;11.13;8.30;;;;;;;6.00;88.75;95625.41;5020149;28;20233;-82
2021/11/13 07:31:39;;;;;;;9.50;8.50;;;;;;;6.03;88.69;95630.22;5012894;28;20258;-82
2021/11/13 07:34:06;;;;;;;9.30;8.40;;;;;;;6.04;88.81;95626.72;5012485;28;20209;-82
2021/11/13 07:36:33;;;;;;;9.27;8.23;;;;;;;6.10;89.16;95629.50;5013151;28;20207;-82
2021/11/13 07:38:59;;;;;;;10.47;8.53;;;;;;;6.09;88.35;95617.66;5014649;28;20485;-82
2021/11/13 07:41:27;;;;;;;9.30;8.10;;;;;;;6.12;87.76;95609.72;5012643;28;20210;-82
2021/11/13 07:43:54;;;;;;;8.33;7.43;;;;;;;6.22;87.39;95604.50;5012680;28;20222;-82
2021/11/13 07:46:21;;;;;;;8.20;7.37;;;;;;;6.25;87.59;95609.31;5013110;28;20242;-82
2021/11/13 07:48:49;;;;;;;8.73;7.90;;;;;;;6.37;87.74;95605.53;5012637;28;20222;-82
2021/11/13 07:51:16;;;;;;;8.33;7.53;;;;;;;6.36;86.86;95601.38;5012817;28;20230;-82
2021/11/13 07:53:45;;;;;;;8.77;7.87;;;;;;;6.36;86.34;95598.81;5012518;28;20210;-82
2021/11/13 07:56:11;;;;;;;7.70;6.93;;;;;;;6.39;86.40;95611.31;5012761;28;20744;-82
2021/11/13 07:58:38;;;;;;;12.03;8.00;;;;;;;6.25;86.27;95599.09;5012775;28;20268;-82
2021/11/13 08:01:04;;;;;;;9.10;7.93;;;;;;;6.20;87.02;95599.53;5012916;28;20205;-82
2021/11/13 08:03:32;;;;;;;8.90;8.00;;;;;;;6.24;87.55;95600.84;5029967;28;20202;-82
2021/11/13 08:05:59;;;;;;;8.67;7.77;;;;;;;6.39;87.10;95601.09;5032696;28;20202;-82
2021/11/13 08:08:27;;;;;;;8.43;7.40;;;;;;;6.43;87.07;95609.25;5032179;28;20210;-82
2021/11/13 08:10:53;;;;;;;7.67;6.97;;;;;;;6.57;85.87;95603.59;5031987;28;20206;-82
2021/11/13 08:13:20;;;;;;;7.43;6.60;;;;;;;6.64;84.66;95614.84;5026886;28;20206;-82
2021/11/13 08:15:48;;;;;;;6.27;5.67;;;;;;;6.66;83.56;95617.25;5012660;28;20202;-82
2021/11/13 08:18:16;;;;;;;8.00;6.50;;;;;;;6.71;84.06;95605.59;5012161;28;20202;-82
2021/11/13 08:20:45;;;;;;;6.93;6.23;;;;;;;6.78;83.64;95600.66;5012738;28;20207;-82
2021/11/13 08:23:13;;;;;;;6.63;5.97;;;;;;;6.88;82.83;95597.06;5012134;28;20265;-82
2021/11/13 08:25:41;;;;;;;6.87;6.17;;;;;;;7.14;82.98;95602.09;5011599;28;20254;-82
2021/11/13 08:28:09;;;;;;;7.07;6.17;;;;;;;7.40;82.12;95609.72;5012225;28;20202;-83
2021/11/13 08:30:36;;;;;;;6.43;5.70;;;;;;;7.44;82.19;95611.00;5011874;28;20222;-81
2021/11/13 08:33:04;;;;;;;6.93;6.23;;;;;;;7.54;81.35;95619.34;5016325;28;20212;-82
2021/11/13 08:35:30;;;;;;;6.90;6.20;;;;;;;7.54;81.21;95624.47;5015608;28;20211;-82
2021/11/13 08:37:58;;;;;;;6.77;6.07;;;;;;;7.54;81.04;95633.91;5015736;28;20202;-81
2021/11/13 08:40:25;;;;;;;8.53;6.90;;;;;;;7.33;85.44;95644.56;5015666;28;20222;-82
2021/11/13 08:42:52;;;;;;;47.03;37.13;;;;;;;7.32;83.35;95635.28;5015659;28;20206;-82
2021/11/13 08:45:18;;;;;;;12.47;10.63;;;;;;;7.29;86.61;95638.19;5015096;28;20265;-81
2021/11/13 08:47:45;;;;;;;12.40;10.27;;;;;;;7.19;88.38;95635.72;5015671;28;20214;-82
2021/11/13 08:50:18;;;;;;;8.13;7.33;;;;;;;7.22;86.15;95645.66;5015127;28;20234;-82
2021/11/13 08:52:45;;;;;;;7.10;6.50;;;;;;;7.52;84.30;95636.63;5015034;28;20235;-82
2021/11/13 08:55:13;;;;;;;7.30;6.60;;;;;;;7.71;81.91;95629.63;5015908;28;20234;-82
2021/11/13 08:57:42;;;;;;;7.47;6.77;;;;;;;7.89;81.00;95630.28;5015430;28;20218;-82
2021/11/13 09:00:10;;;;;;;7.17;6.47;;;;;;;7.94;80.53;95622.94;5015538;28;20233;-82
2021/11/13 09:02:37;;;;;;;8.80;7.27;;;;;;;7.97;79.77;95625.19;5025237;28;20197;-81
2021/11/13 09:05:05;;;;;;;9.03;8.07;;;;;;;7.91;79.84;95629.19;5034706;28;20218;-82
2021/11/13 09:07:32;;;;;;;7.63;6.93;;;;;;;7.89;79.13;95625.97;5035259;28;20210;-82
2021/11/13 09:09:58;;;;;;;9.73;8.73;;;;;;;7.85;78.98;95631.59;5034932;28;20226;-82
2021/11/13 09:12:28;;;;;;;17.43;14.33;;;;;;;7.82;78.78;95627.56;5035093;28;20210;-80
2021/11/13 09:14:58;;;;;;;11.03;9.60;;;;;;;7.82;78.70;95614.75;5034963;28;20224;-79
2021/11/13 09:17:25;;;;;;;7.90;7.20;;;;;;;7.77;78.40;95608.50;5034924;28;20202;-82
2021/11/13 09:19:52;;;;;;;7.73;7.00;;;;;;;7.79;79.11;95607.38;5034234;28;20605;-82
2021/11/13 09:22:19;;;;;;;7.00;6.30;;;;;;;7.59;78.37;95609.44;5035315;28;20217;-82
2021/11/13 09:24:46;;;;;;;7.20;6.50;;;;;;;7.70;78.55;95610.88;5035282;28;20226;-79
2021/11/13 09:27:12;;;;;;;7.30;6.53;;;;;;;7.75;78.39;95605.28;5035064;28;20254;-81
2021/11/13 09:29:40;;;;;;;6.57;5.97;;;;;;;7.73;77.93;95610.56;5034821;28;20225;-79
2021/11/13 09:32:08;;;;;;;6.97;6.33;;;;;;;7.73;78.09;95613.13;5034918;28;20701;-81
2021/11/13 09:34:34;;;;;;;15.23;9.63;;;;;;;7.75;78.02;95612.97;5034650;28;20573;-80
2021/11/13 09:37:01;;;;;;;34.30;24.37;;;;;;;7.75;78.28;95608.66;5034113;28;20201;-81
2021/11/13 09:39:27;;;;;;;11.07;9.43;;;;;;;7.65;78.57;95604.66;5034507;28;20262;-79
2021/11/13 09:41:54;;;;;;;9.33;7.60;;;;;;;7.72;78.72;95614.09;5034479;28;20696;-81
2021/11/13 09:44:21;;;;;;;7.37;6.67;;;;;;;7.61;78.87;95611.84;5019443;28;20226;-80
2021/11/13 09:46:51;;;;;;;8.30;7.03;;;;;;;7.64;78.77;95614.09;5014470;28;20680;-81
2021/11/13 09:49:18;;;;;;;7.97;7.23;;;;;;;7.63;78.76;95613.28;5014398;28;20239;-81
2021/11/13 09:51:47;;;;;;;7.80;7.10;;;;;;;7.60;79.61;95608.47;5013896;28;20250;-82
2021/11/13 09:54:14;;;;;;;7.87;7.07;;;;;;;7.63;79.40;95608.16;5014477;28;20205;-82
2021/11/13 09:56:40;;;;;;;8.13;7.33;;;;;;;7.66;79.91;95603.69;5014617;28;20206;-82
2021/11/13 09:59:07;;;;;;;8.67;7.87;;;;;;;7.65;80.84;95610.56;5014197;28;20230;-82
2021/11/13 10:01:33;;;;;;;16.80;14.70;;;;;;;7.77;80.01;95613.63;5015585;28;20199;-82
2021/11/13 10:04:02;;;;;;;11.17;9.20;;;;;;;7.80;80.09;95603.88;5033822;28;20202;-82
2021/11/13 10:06:28;;;;;;;9.80;7.90;;;;;;;7.69;79.66;95601.63;5033829;28;20203;-82
2021/11/13 10:08:55;;;;;;;9.83;8.83;;;;;;;7.57;81.71;95593.41;5033755;28;20237;-82
2021/11/13 10:11:24;;;;;;;9.63;8.57;;;;;;;7.70;81.42;95602.44;5034087;28;20577;-82
2021/11/13 10:14:00;;;;;;;8.90;8.10;;;;;;;7.80;80.83;95603.06;5024993;28;20203;-82
2021/11/13 10:19:30;;;;;;;9.27;8.13;;;;;;;7.87;80.06;95599.72;5014259;28;20222;-82
2021/11/13 10:22:15;;;;;;;8.77;7.87;;;;;;;7.91;80.45;95592.50;5014446;28;20785;-82
2021/11/13 10:24:48;;;;;;;9.33;8.43;;;;;;;7.97;79.69;95600.34;5013892;28;20223;-82
2021/11/13 10:27:26;;;;;;;9.80;8.70;;;;;;;8.06;79.59;95597.81;5014131;28;20213;-82
2021/11/13 10:29:59;;;;;;;10.60;8.60;;;;;;;8.12;79.68;95594.56;5013676;28;20218;-82
2021/11/13 10:32:43;;;;;;;16.13;13.93;;;;;;;8.16;79.31;95599.22;5014407;28;20206;-82
2021/11/13 10:35:17;;;;;;;17.07;14.57;;;;;;;8.17;79.69;95598.25;5014031;28;20202;-82
2021/11/13 10:38:00;;;;;;;11.30;10.10;;;;;;;8.20;79.55;95604.84;5014209;28;20712;-82
2021/11/13 10:40:30;;;;;;;11.47;9.43;;;;;;;8.25;78.96;95603.41;5014295;28;20227;-81
2021/11/13 10:43:11;;;;;;;9.83;8.83;;;;;;;8.30;79.60;95602.91;5014425;28;20207;-82
2021/11/13 10:45:44;;;;;;;10.00;8.80;;;;;;;8.36;79.80;95599.72;5013779;28;20258;-82
2021/11/13 10:48:27;;;;;;;9.90;8.97;;;;;;;8.39;79.80;95604.53;5013600;28;20237;-82
2021/11/13 10:51:17;;;;;;;9.90;8.90;;;;;;;8.42;78.83;95595.72;5013449;28;20749;-82
2021/11/13 10:53:54;;;;;;;11.30;9.33;;;;;;;8.43;78.98;95602.44;5013049;28;20226;-82
2021/11/13 10:56:48;;;;;;;9.80;8.87;;;;;;;8.46;79.10;95592.66;5013170;28;20268;-82
2021/11/13 11:02:38;;;;;;;12.20;9.23;;;;;;;8.54;78.72;95595.19;5016065;28;20708;-82
2021/11/13 11:05:51;;;;;;;10.43;9.20;;;;;;;8.61;78.36;95593.59;5033146;28;20558;-82
2021/11/13 11:08:32;;;;;;;10.83;9.73;;;;;;;8.60;78.57;95589.44;4951728;29;20201;-82
2021/11/13 11:11:02;;;;;;;11.30;9.87;;;;;;;8.62;79.11;95594.41;5033220;28;20198;-82
2021/11/13 11:13:45;;;;;;;10.93;9.47;;;;;;;8.57;79.00;95591.50;5033056;28;20202;-82
2021/11/13 11:16:36;;;;;;;10.10;9.10;;;;;;;8.58;79.93;95591.34;5032746;28;20297;-82
2021/11/13 11:19:15;;;;;;;10.63;9.53;;;;;;;8.65;79.41;95594.06;5031865;28;20226;-82
2021/11/13 11:22:10;;;;;;;52.03;42.47;;;;;;;8.66;79.75;95599.00;5032552;28;20728;-82
2021/11/13 11:24:48;;;;;;;18.17;15.83;;;;;;;8.68;79.12;95591.16;5029598;28;20222;-82
2021/11/13 11:30:15;;;;;;;11.50;10.13;;;;;;;8.70;78.97;95584.09;5030750;28;20293;-81
2021/11/13 11:32:54;;;;;;;12.87;9.83;;;;;;;8.75;78.62;95591.31;5032433;28;20581;-82
2021/11/13 11:35:29;;;;;;;11.10;10.00;;;;;;;8.75;79.17;95589.53;5031790;28;20204;-82
2021/11/13 11:38:13;;;;;;;10.50;9.50;;;;;;;8.78;79.40;95568.69;5023890;28;20198;-82
2021/11/13 11:40:56;;;;;;;14.57;10.37;;;;;;;8.81;80.13;95570.91;5012781;28;20222;-82
2021/11/13 11:43:43;;;;;;;11.37;10.17;;;;;;;8.77;79.87;95571.41;5012434;28;20608;-82
2021/11/13 11:46:10;;;;;;;11.33;9.80;;;;;;;8.82;79.42;95567.38;5006143;28;20227;-82
2021/11/13 11:48:51;;;;;;;11.40;10.20;;;;;;;8.87;79.26;95574.56;5012269;28;20211;-82
2021/11/13 11:51:31;;;;;;;11.80;10.33;;;;;;;8.86;79.73;95571.19;5002700;28;20202;-82
2021/11/13 11:54:13;;;;;;;11.67;9.80;;;;;;;8.86;79.55;95575.53;5025638;28;20210;-82
2021/11/13 11:56:43;;;;;;;11.37;10.17;;;;;;;8.87;79.64;95570.25;5013062;28;20199;-82
2021/11/13 11:59:13;;;;;;;11.00;9.90;;;;;;;8.89;80.00;95578.56;5013561;28;20782;-82
2021/11/13 12:04:43;;;;;;;12.03;10.83;;;;;;;8.92;81.50;95575.69;5025227;28;20213;-82